Time;durP1;ratioP1;P1;durP2;ratioP2;P2;SDS_P1;SDS_P2;PMS_P1;PMS_P2;Temp;Humidity;BMP_temperature;BMP_pressure;BME280_temperature;BME280_humidity;BME280_pressure;Samples;Min_cycle;Max_cycle;Signal;HPM_P1;HPM_P2
2021/03/22 00:01:55;;;;;;;10.57;4.35;;;;;;;;;;5051176;28;20489;-68
2021/03/22 00:04:21;;;;;;;7.85;3.67;;;;;;;;;;5052460;28;20033;-68
2021/03/22 00:06:47;;;;;;;6.90;2.90;;;;;;;;;;5052205;28;20036;-68
2021/03/22 00:09:14;;;;;;;4.28;2.03;;;;;;;;;;5051038;28;20071;-68
2021/03/22 00:11:40;;;;;;;4.90;2.03;;;;;;;;;;5052317;28;20075;-68
2021/03/22 00:14:06;;;;;;;5.85;2.05;;;;;;;;;;5051873;28;20481;-68
2021/03/22 00:16:32;;;;;;;4.07;1.48;;;;;;;;;;5050931;28;20031;-67
2021/03/22 00:18:58;;;;;;;2.28;1.20;;;;;;;;;;5052280;28;20052;-67
2021/03/22 00:21:25;;;;;;;0.95;0.80;;;;;;;;;;5051783;28;20025;-67
2021/03/22 00:23:51;;;;;;;1.08;0.90;;;;;;;;;;5052225;28;20055;-67
2021/03/22 00:26:17;;;;;;;1.60;0.90;;;;;;;;;;5052644;28;20105;-67
2021/03/22 00:28:43;;;;;;;0.98;0.82;;;;;;;;;;5050524;28;20033;-67
2021/03/22 00:31:12;;;;;;;1.27;1.08;;;;;;;;;;5052116;28;20079;-68
2021/03/22 00:33:38;;;;;;;1.50;1.00;;;;;;;;;;5052072;28;20515;-68
2021/03/22 00:36:05;;;;;;;1.52;0.80;;;;;;;;;;5050385;28;20033;-68
2021/03/22 00:38:32;;;;;;;1.88;1.00;;;;;;;;;;5052085;28;20021;-68
2021/03/22 00:40:58;;;;;;;4.07;2.28;;;;;;;;;;5050715;28;20478;-68
2021/03/22 00:43:25;;;;;;;11.73;5.97;;;;;;;;;;5051722;28;20029;-68
2021/03/22 00:45:52;;;;;;;7.15;4.05;;;;;;;;;;5052195;28;20028;-68
2021/03/22 00:48:19;;;;;;;12.90;6.38;;;;;;;;;;5052025;28;20025;-67
2021/03/22 00:50:45;;;;;;;13.40;7.10;;;;;;;;;;5051353;28;20103;-68
2021/03/22 00:53:12;;;;;;;11.25;5.85;;;;;;;;;;5051881;28;20034;-67
2021/03/22 00:55:39;;;;;;;10.43;4.68;;;;;;;;;;5051694;28;20040;-68
2021/03/22 00:58:05;;;;;;;8.57;4.05;;;;;;;;;;5051802;28;20025;-68
2021/03/22 01:00:34;;;;;;;9.30;3.47;;;;;;;;;;5051768;28;20045;-68
2021/03/22 01:03:01;;;;;;;6.57;3.33;;;;;;;;;;5050196;28;20017;-68
2021/03/22 01:05:27;;;;;;;7.65;3.00;;;;;;;;;;5052018;28;20025;-68
2021/03/22 01:07:54;;;;;;;5.00;2.58;;;;;;;;;;5054194;28;20032;-68
2021/03/22 01:10:39;;;;;;;2.97;1.80;;;;;;;;;;5055435;28;20082;-68
2021/03/22 01:13:11;;;;;;;2.72;1.80;;;;;;;;;;5055381;28;20029;-68
2021/03/22 01:15:37;;;;;;;4.53;2.40;;;;;;;;;;5054101;28;20430;-68
2021/03/22 01:18:04;;;;;;;3.97;2.45;;;;;;;;;;5055015;28;20053;-68
2021/03/22 01:20:34;;;;;;;6.28;2.92;;;;;;;;;;5054076;28;20051;-67
2021/03/22 01:23:01;;;;;;;3.15;1.65;;;;;;;;;;5054093;28;20025;-68
2021/03/22 01:25:27;;;;;;;1.83;1.55;;;;;;;;;;5053750;28;20024;-67
2021/03/22 01:27:53;;;;;;;1.88;1.50;;;;;;;;;;5055233;28;20021;-68
2021/03/22 01:30:23;;;;;;;2.88;1.70;;;;;;;;;;5055170;28;20017;-68
2021/03/22 01:32:58;;;;;;;2.80;2.03;;;;;;;;;;5054608;28;20112;-66
2021/03/22 01:35:24;;;;;;;3.03;2.15;;;;;;;;;;5055117;28;20021;-68
2021/03/22 01:37:50;;;;;;;2.88;1.80;;;;;;;;;;5054554;28;20516;-68
2021/03/22 01:40:25;;;;;;;1.85;1.58;;;;;;;;;;5054941;28;20033;-68
2021/03/22 01:43:00;;;;;;;3.28;1.88;;;;;;;;;;5054884;28;20024;-68
2021/03/22 01:45:26;;;;;;;2.60;1.50;;;;;;;;;;5054614;28;20450;-68
2021/03/22 01:47:52;;;;;;;6.70;3.45;;;;;;;;;;5053693;28;20052;-67
2021/03/22 01:50:18;;;;;;;8.55;3.83;;;;;;;;;;5054761;28;20029;-68
2021/03/22 01:52:46;;;;;;;8.32;3.67;;;;;;;;;;5054119;28;20493;-68
2021/03/22 01:55:13;;;;;;;8.77;4.93;;;;;;;;;;5053308;28;20164;-68
2021/03/22 01:57:43;;;;;;;7.05;3.40;;;;;;;;;;5054690;28;20389;-68
2021/03/22 02:00:09;;;;;;;5.88;2.78;;;;;;;;;;5054162;28;20096;-67
2021/03/22 02:02:36;;;;;;;5.53;2.35;;;;;;;;;;5054532;28;20021;-68
2021/03/22 02:05:03;;;;;;;3.70;2.10;;;;;;;;;;5054608;28;20092;-68
2021/03/22 02:07:30;;;;;;;3.17;2.10;;;;;;;;;;5054902;28;20378;-68
2021/03/22 02:09:57;;;;;;;5.10;2.95;;;;;;;;;;5054379;28;20017;-67
2021/03/22 02:12:23;;;;;;;4.30;2.17;;;;;;;;;;5053132;28;20060;-68
2021/03/22 02:14:50;;;;;;;3.95;2.25;;;;;;;;;;5053862;28;20029;-68
2021/03/22 02:17:19;;;;;;;4.88;2.70;;;;;;;;;;5054604;28;20377;-68
2021/03/22 02:20:00;;;;;;;2.22;1.67;;;;;;;;;;5053690;28;20029;-68
2021/03/22 02:22:48;;;;;;;1.95;1.50;;;;;;;;;;5054186;28;20079;-67
2021/03/22 02:25:15;;;;;;;1.80;1.55;;;;;;;;;;5054173;28;20143;-67
2021/03/22 02:27:50;;;;;;;2.50;1.63;;;;;;;;;;5053944;28;20021;-68
2021/03/22 02:30:16;;;;;;;2.13;1.48;;;;;;;;;;5054054;28;20092;-67
2021/03/22 02:32:56;;;;;;;3.38;2.40;;;;;;;;;;5054064;28;20143;-68
2021/03/22 02:35:25;;;;;;;2.72;1.80;;;;;;;;;;5053599;28;20060;-68
2021/03/22 02:37:58;;;;;;;2.80;1.77;;;;;;;;;;5052594;28;20025;-68
2021/03/22 02:40:34;;;;;;;2.03;1.35;;;;;;;;;;5053840;28;20055;-68
2021/03/22 02:43:01;;;;;;;3.13;1.45;;;;;;;;;;5053346;28;20043;-67
2021/03/22 02:45:30;;;;;;;2.15;1.67;;;;;;;;;;5052586;28;20025;-67
2021/03/22 02:47:58;;;;;;;5.93;2.47;;;;;;;;;;5053936;28;20413;-68
2021/03/22 02:50:26;;;;;;;8.27;3.85;;;;;;;;;;5053228;28;20028;-68
2021/03/22 02:52:53;;;;;;;16.90;5.63;;;;;;;;;;5053343;28;20516;-67
2021/03/22 02:55:27;;;;;;;12.52;6.28;;;;;;;;;;5053122;28;20500;-68
2021/03/22 02:57:55;;;;;;;12.73;6.18;;;;;;;;;;5053487;28;20033;-68
2021/03/22 03:00:30;;;;;;;12.52;5.50;;;;;;;;;;5053384;28;20027;-67
2021/03/22 03:02:58;;;;;;;10.73;4.40;;;;;;;;;;5053180;28;20048;-67
2021/03/22 03:05:26;;;;;;;12.60;5.32;;;;;;;;;;5053476;28;20056;-67
2021/03/22 03:07:59;;;;;;;10.75;5.63;;;;;;;;;;5053262;28;20079;-67
2021/03/22 03:10:26;;;;;;;9.68;4.97;;;;;;;;;;5052845;28;20484;-68
2021/03/22 03:12:52;;;;;;;8.73;3.72;;;;;;;;;;5053139;28;20025;-67
2021/03/22 03:15:19;;;;;;;9.73;4.05;;;;;;;;;;5053225;28;20029;-67
2021/03/22 03:17:46;;;;;;;7.63;3.10;;;;;;;;;;5051486;28;20465;-67
2021/03/22 03:20:13;;;;;;;6.00;2.30;;;;;;;;;;5052070;28;20025;-67
2021/03/22 03:22:40;;;;;;;5.13;2.58;;;;;;;;;;5051878;28;20021;-67
2021/03/22 03:25:10;;;;;;;5.50;2.42;;;;;;;;;;5051660;28;20115;-68
2021/03/22 03:27:36;;;;;;;5.35;2.40;;;;;;;;;;5052877;28;20095;-67
2021/03/22 03:30:04;;;;;;;4.07;1.67;;;;;;;;;;5051272;28;20032;-67
2021/03/22 03:32:30;;;;;;;3.08;1.42;;;;;;;;;;5052176;28;20489;-67
2021/03/22 03:34:57;;;;;;;3.60;1.48;;;;;;;;;;5052757;28;20082;-68
2021/03/22 03:37:23;;;;;;;4.65;2.35;;;;;;;;;;5052398;28;20021;-68
2021/03/22 03:39:49;;;;;;;8.13;3.72;;;;;;;;;;5052787;28;20536;-67
2021/03/22 03:42:15;;;;;;;6.22;2.63;;;;;;;;;;5051362;28;20025;-67
2021/03/22 03:44:41;;;;;;;9.07;3.50;;;;;;;;;;5051198;28;20043;-67
2021/03/22 03:47:08;;;;;;;4.28;2.05;;;;;;;;;;5052730;28;20071;-67
2021/03/22 03:49:34;;;;;;;4.50;2.22;;;;;;;;;;5052569;28;20036;-67
2021/03/22 03:52:01;;;;;;;3.40;1.90;;;;;;;;;;5051869;28;20417;-68
2021/03/22 03:54:27;;;;;;;2.53;1.83;;;;;;;;;;5052350;28;20037;-68
2021/03/22 03:56:53;;;;;;;2.90;1.50;;;;;;;;;;5052488;28;20021;-68
2021/03/22 03:59:19;;;;;;;3.95;1.80;;;;;;;;;;5052039;28;20096;-68
2021/03/22 04:01:45;;;;;;;5.47;2.35;;;;;;;;;;5052484;28;20377;-67
2021/03/22 04:04:12;;;;;;;3.95;1.70;;;;;;;;;;5052572;28;20028;-67
2021/03/22 04:06:39;;;;;;;3.63;1.60;;;;;;;;;;5050694;28;20031;-68
2021/03/22 04:09:06;;;;;;;1.67;0.80;;;;;;;;;;5052269;28;20434;-67
2021/03/22 04:11:34;;;;;;;1.63;1.23;;;;;;;;;;5052314;28;20103;-67
2021/03/22 04:14:01;;;;;;;3.83;1.55;;;;;;;;;;5051828;28;20040;-67
2021/03/22 04:16:27;;;;;;;3.72;1.75;;;;;;;;;;5052224;28;20057;-68
2021/03/22 04:18:54;;;;;;;4.82;1.80;;;;;;;;;;5050944;28;20166;-67
2021/03/22 04:21:22;;;;;;;2.00;1.30;;;;;;;;;;5052129;28;20362;-67
2021/03/22 04:23:49;;;;;;;2.45;1.35;;;;;;;;;;5051130;28;20119;-67
2021/03/22 04:26:16;;;;;;;1.52;1.27;;;;;;;;;;5052226;28;20021;-67
2021/03/22 04:28:42;;;;;;;3.22;1.13;;;;;;;;;;5051681;28;20100;-68
2021/03/22 04:31:09;;;;;;;15.93;8.40;;;;;;;;;;5052121;28;20021;-68
2021/03/22 04:33:35;;;;;;;7.15;2.60;;;;;;;;;;5050346;28;20490;-68
2021/03/22 04:36:01;;;;;;;8.13;2.55;;;;;;;;;;5050893;28;20053;-68
2021/03/22 04:38:28;;;;;;;7.78;2.30;;;;;;;;;;5052216;28;20491;-68
2021/03/22 04:40:54;;;;;;;7.47;2.38;;;;;;;;;;5050553;28;20035;-68
2021/03/22 04:43:20;;;;;;;3.25;1.40;;;;;;;;;;5055188;28;20055;-67
2021/03/22 04:45:47;;;;;;;5.53;2.08;;;;;;;;;;5055917;28;20025;-66
2021/03/22 04:48:14;;;;;;;4.03;1.50;;;;;;;;;;5054351;28;20048;-67
2021/03/22 04:50:40;;;;;;;3.45;1.30;;;;;;;;;;5054431;28;20552;-66
2021/03/22 04:53:06;;;;;;;3.50;1.45;;;;;;;;;;5055756;28;20378;-67
2021/03/22 04:55:33;;;;;;;3.47;1.67;;;;;;;;;;5055374;28;20029;-67
2021/03/22 04:57:59;;;;;;;2.85;1.30;;;;;;;;;;5055836;28;20513;-67
2021/03/22 05:00:30;;;;;;;2.75;1.58;;;;;;;;;;5056219;28;20103;-67
2021/03/22 05:02:56;;;;;;;4.85;2.78;;;;;;;;;;5055383;28;20020;-68
2021/03/22 05:05:23;;;;;;;5.65;2.22;;;;;;;;;;5055631;28;20029;-68
2021/03/22 05:07:50;;;;;;;9.07;4.13;;;;;;;;;;5055625;28;20047;-68
2021/03/22 05:10:23;;;;;;;4.40;2.30;;;;;;;;;;5055138;28;20385;-68
2021/03/22 05:12:49;;;;;;;3.10;1.30;;;;;;;;;;5055445;28;20025;-66
2021/03/22 05:15:16;;;;;;;4.63;1.67;;;;;;;;;;5055391;28;20056;-66
2021/03/22 05:17:42;;;;;;;4.43;1.80;;;;;;;;;;5055026;28;20021;-66
2021/03/22 05:20:11;;;;;;;5.50;1.60;;;;;;;;;;5054323;28;20047;-69
2021/03/22 05:22:37;;;;;;;8.52;3.55;;;;;;;;;;5055413;28;20021;-68
2021/03/22 05:25:04;;;;;;;8.60;3.78;;;;;;;;;;5054912;28;20369;-67
2021/03/22 05:27:30;;;;;;;9.48;3.75;;;;;;;;;;5054005;28;20041;-67
2021/03/22 05:29:56;;;;;;;5.97;2.90;;;;;;;;;;5054779;28;20045;-67
2021/03/22 05:32:27;;;;;;;7.18;3.72;;;;;;;;;;5055130;28;20025;-67
2021/03/22 05:34:53;;;;;;;12.25;6.20;;;;;;;;;;5055058;28;20040;-67
2021/03/22 05:37:19;;;;;;;12.50;7.10;;;;;;;;;;5054640;28;20401;-67
2021/03/22 05:39:45;;;;;;;12.93;7.32;;;;;;;;;;5055225;28;20025;-67
2021/03/22 05:42:19;;;;;;;10.57;5.32;;;;;;;;;;5053682;28;20112;-67
2021/03/22 05:44:53;;;;;;;4.55;2.30;;;;;;;;;;5054604;28;20428;-68
2021/03/22 05:47:24;;;;;;;4.63;2.05;;;;;;;;;;5054863;28;20021;-68
2021/03/22 05:49:55;;;;;;;3.25;1.48;;;;;;;;;;5054749;28;20111;-67
2021/03/22 05:52:40;;;;;;;6.25;2.30;;;;;;;;;;5054188;28;20055;-68
2021/03/22 05:55:30;;;;;;;4.65;2.35;;;;;;;;;;5053968;28;20029;-67
2021/03/22 05:58:01;;;;;;;4.20;2.05;;;;;;;;;;5054578;28;20024;-67
2021/03/22 06:00:28;;;;;;;5.00;2.55;;;;;;;;;;5054721;28;20523;-67
2021/03/22 06:03:00;;;;;;;7.80;3.55;;;;;;;;;;5053366;28;20477;-68
2021/03/22 06:05:38;;;;;;;8.00;3.80;;;;;;;;;;5052818;28;20021;-68
2021/03/22 06:08:23;;;;;;;7.60;3.42;;;;;;;;;;5054796;28;20391;-68
2021/03/22 06:10:54;;;;;;;9.63;4.45;;;;;;;;;;5043109;28;20363;-67
2021/03/22 06:13:28;;;;;;;11.45;4.55;;;;;;;;;;5059533;28;20388;-69
2021/03/22 06:15:54;;;;;;;;;;;;;;;;;;5045876;28;20397;-70
2021/03/22 06:18:23;;;;;;;11.48;4.82;;;;;;;;;;5038284;28;20380;-72
2021/03/22 06:20:51;;;;;;;12.52;5.82;;;;;;;;;;5049209;28;20444;-72
2021/03/22 06:23:34;;;;;;;11.75;5.80;;;;;;;;;;5046540;28;20197;-76
2021/03/22 06:26:00;;;;;;;16.97;9.10;;;;;;;;;;5050159;28;20481;-71
2021/03/22 06:28:31;;;;;;;19.15;10.23;;;;;;;;;;5051184;28;20350;-73
2021/03/22 06:30:57;;;;;;;11.40;5.25;;;;;;;;;;5052776;28;20029;-74
2021/03/22 06:33:29;;;;;;;9.63;4.85;;;;;;;;;;5046262;28;20053;-72
2021/03/22 06:35:56;;;;;;;12.63;6.75;;;;;;;;;;5053740;28;20056;-71
2021/03/22 06:38:22;;;;;;;9.85;5.15;;;;;;;;;;5053805;28;20035;-71
2021/03/22 06:40:48;;;;;;;17.33;6.53;;;;;;;;;;5051167;28;20021;-73
2021/03/22 06:43:19;;;;;;;17.60;9.02;;;;;;;;;;5053559;28;20025;-72
2021/03/22 06:45:47;;;;;;;11.50;6.13;;;;;;;;;;5034677;28;20100;-71
2021/03/22 06:48:15;;;;;;;12.38;6.50;;;;;;;;;;5033279;28;20033;-71
2021/03/22 06:50:42;;;;;;;9.57;4.40;;;;;;;;;;5052609;28;20057;-72
2021/03/22 06:53:08;;;;;;;10.98;5.57;;;;;;;;;;5050901;28;20090;-71
2021/03/22 06:55:40;;;;;;;9.43;4.70;;;;;;;;;;5043236;28;20093;-70
2021/03/22 06:58:06;;;;;;;10.50;5.15;;;;;;;;;;5050327;28;20025;-70
2021/03/22 07:00:36;;;;;;;9.35;5.57;;;;;;;;;;5052697;28;20527;-70
2021/03/22 07:03:25;;;;;;;8.73;4.18;;;;;;;;;;5050307;28;20025;-72
2021/03/22 07:05:51;;;;;;;13.77;6.05;;;;;;;;;;5050581;28;20025;-70
2021/03/22 07:08:37;;;;;;;14.00;7.07;;;;;;;;;;5052999;28;20096;-71
2021/03/22 07:11:30;;;;;;;11.50;6.00;;;;;;;;;;5051229;28;20378;-71
2021/03/22 07:14:01;;;;;;;12.95;6.82;;;;;;;;;;5031826;28;20083;-69
2021/03/22 07:16:31;;;;;;;13.73;7.18;;;;;;;;;;5036888;28;20029;-71
2021/03/22 07:19:07;;;;;;;18.45;8.55;;;;;;;;;;5035030;28;20029;-72
2021/03/22 07:21:34;;;;;;;16.92;8.90;;;;;;;;;;5036620;28;20029;-68
2021/03/22 07:24:03;;;;;;;12.80;6.93;;;;;;;;;;5040379;28;20540;-72
2021/03/22 07:26:36;;;;;;;18.70;8.20;;;;;;;;;;5043626;28;20033;-70
2021/03/22 07:29:10;;;;;;;14.13;7.28;;;;;;;;;;5046926;28;20092;-72
2021/03/22 07:31:55;;;;;;;14.65;7.30;;;;;;;;;;5048336;28;20032;-70
2021/03/22 07:34:37;;;;;;;17.70;9.25;;;;;;;;;;5047923;28;20159;-71
2021/03/22 07:37:18;;;;;;;13.30;8.35;;;;;;;;;;5052187;28;20028;-69
2021/03/22 07:39:52;;;;;;;13.13;7.38;;;;;;;;;;5033170;28;20110;-72
2021/03/22 07:42:37;;;;;;;15.02;7.93;;;;;;;;;;5032757;28;20025;-74
2021/03/22 07:45:14;;;;;;;13.80;6.97;;;;;;;;;;5031920;28;20021;-73
2021/03/22 07:47:56;;;;;;;11.48;5.88;;;;;;;;;;5032038;28;20025;-74
2021/03/22 07:50:25;;;;;;;16.48;9.10;;;;;;;;;;5030764;28;20163;-73
2021/03/22 07:53:05;;;;;;;13.50;7.75;;;;;;;;;;5030225;28;20161;-72
2021/03/22 07:55:31;;;;;;;12.25;7.00;;;;;;;;;;5030712;28;20033;-73
2021/03/22 07:58:00;;;;;;;15.00;7.82;;;;;;;;;;5031516;28;20033;-73
2021/03/22 08:00:53;;;;;;;17.08;8.75;;;;;;;;;;5043310;28;20076;-71
2021/03/22 08:03:24;;;;;;;17.67;7.40;;;;;;;;;;5049476;28;20115;-70
2021/03/22 08:06:02;;;;;;;10.95;5.45;;;;;;;;;;5048233;28;20107;-72
2021/03/22 08:08:47;;;;;;;11.80;5.47;;;;;;;;;;5049862;28;20048;-72
2021/03/22 08:11:25;;;;;;;9.20;4.63;;;;;;;;;;5048874;28;20056;-72
2021/03/22 08:13:58;;;;;;;12.55;6.15;;;;;;;;;;5047527;28;20050;-71
2021/03/22 08:16:24;;;;;;;;;;;;;;;;;;5051498;28;20604;-74
2021/03/22 08:18:56;;;;;;;8.93;4.70;;;;;;;;;;5051143;28;19904;-70
2021/03/22 08:21:25;;;;;;;10.23;4.85;;;;;;;;;;5047179;28;20031;-69
2021/03/22 08:24:11;;;;;;;9.20;4.25;;;;;;;;;;5041507;28;20392;-68
2021/03/22 08:26:50;;;;;;;10.18;4.60;;;;;;;;;;5044425;28;20029;-72
2021/03/22 08:29:28;;;;;;;11.18;5.40;;;;;;;;;;5039497;28;20029;-71
2021/03/22 08:32:00;;;;;;;12.52;6.38;;;;;;;;;;5036341;28;20108;-69
2021/03/22 08:34:44;;;;;;;15.68;7.55;;;;;;;;;;5038946;28;20065;-71
2021/03/22 08:37:13;;;;;;;14.30;6.50;;;;;;;;;;5046302;28;20040;-71
2021/03/22 08:39:42;;;;;;;9.95;6.80;;;;;;;;;;5049989;28;20370;-69
2021/03/22 08:42:16;;;;;;;12.70;7.38;;;;;;;;;;5032469;28;20474;-69
2021/03/22 08:45:01;;;;;;;14.25;8.48;;;;;;;;;;5048078;28;20021;-70
2021/03/22 08:47:46;;;;;;;13.05;7.72;;;;;;;;;;5036920;28;20025;-71
2021/03/22 08:50:29;;;;;;;10.00;6.43;;;;;;;;;;5042208;28;20029;-70
2021/03/22 08:53:06;;;;;;;14.80;6.72;;;;;;;;;;5038685;28;20120;-69
2021/03/22 08:55:41;;;;;;;11.07;6.47;;;;;;;;;;5042833;28;20450;-69
2021/03/22 08:58:27;;;;;;;13.77;9.10;;;;;;;;;;5040872;28;20553;-70
2021/03/22 09:00:54;;;;;;;10.20;5.82;;;;;;;;;;5044037;28;20632;-71
2021/03/22 09:03:28;;;;;;;9.68;5.90;;;;;;;;;;5044969;28;20100;-69
2021/03/22 09:06:04;;;;;;;10.63;5.00;;;;;;;;;;5046068;28;20033;-69
2021/03/22 09:08:34;;;;;;;14.50;6.38;;;;;;;;;;5050039;28;20100;-69
2021/03/22 09:11:19;;;;;;;12.63;6.75;;;;;;;;;;5030986;28;20025;-70
2021/03/22 09:13:54;;;;;;;15.68;9.05;;;;;;;;;;5041693;28;20040;-71
2021/03/22 09:16:23;;;;;;;17.02;9.75;;;;;;;;;;5048284;28;20366;-71
2021/03/22 09:19:08;;;;;;;16.83;9.20;;;;;;;;;;5049642;28;20021;-70
2021/03/22 09:21:35;;;;;;;18.15;8.82;;;;;;;;;;5042591;28;20421;-69
2021/03/22 09:24:01;;;;;;;17.02;8.80;;;;;;;;;;5049125;28;20036;-71
2021/03/22 09:26:46;;;;;;;13.55;8.60;;;;;;;;;;5050086;28;20176;-72
2021/03/22 09:29:32;;;;;;;13.35;6.78;;;;;;;;;;5049656;28;20021;-73
2021/03/22 09:32:00;;;;;;;15.50;7.47;;;;;;;;;;5041561;28;20040;-71
2021/03/22 09:34:37;;;;;;;17.52;9.43;;;;;;;;;;5032767;28;20032;-75
2021/03/22 09:37:22;;;;;;;19.73;10.63;;;;;;;;;;5032269;28;20083;-73
2021/03/22 09:39:49;;;;;;;11.40;6.30;;;;;;;;;;5046462;28;20025;-73
2021/03/22 09:42:23;;;;;;;12.48;7.95;;;;;;;;;;5053555;28;20385;-72
2021/03/22 09:44:56;;;;;;;10.90;6.97;;;;;;;;;;5045701;28;20489;-73
2021/03/22 09:47:24;;;;;;;15.18;7.60;;;;;;;;;;5060782;28;20037;-71
2021/03/22 09:50:04;;;;;;;11.70;6.90;;;;;;;;;;5047131;28;20033;-73
2021/03/22 09:52:35;;;;;;;14.25;7.40;;;;;;;;;;5038193;28;20044;-73
2021/03/22 09:55:21;;;;;;;10.02;6.00;;;;;;;;;;5044534;28;20073;-73
2021/03/22 09:57:48;;;;;;;12.02;6.32;;;;;;;;;;5039479;28;20494;-74
2021/03/22 10:00:17;;;;;;;12.65;6.55;;;;;;;;;;5049195;28;20044;-72
2021/03/22 10:02:45;;;;;;;13.50;7.93;;;;;;;;;;5035796;28;20028;-73
2021/03/22 10:05:20;;;;;;;13.25;7.28;;;;;;;;;;5033962;28;20026;-71
2021/03/22 10:07:56;;;;;;;12.30;7.20;;;;;;;;;;5034184;28;20044;-71
2021/03/22 10:10:24;;;;;;;9.00;5.35;;;;;;;;;;5034390;28;20089;-72
2021/03/22 10:12:53;;;;;;;9.88;4.95;;;;;;;;;;5033767;28;20109;-72
2021/03/22 10:15:27;;;;;;;9.05;5.25;;;;;;;;;;5034143;28;20113;-72
2021/03/22 10:17:56;;;;;;;9.07;4.72;;;;;;;;;;5037877;28;20032;-71
2021/03/22 10:20:24;;;;;;;8.40;4.60;;;;;;;;;;5044519;28;20076;-73
2021/03/22 10:22:58;;;;;;;10.85;5.60;;;;;;;;;;5052616;28;20070;-72
2021/03/22 10:25:27;;;;;;;11.05;5.70;;;;;;;;;;5051877;28;20025;-72
2021/03/22 10:28:01;;;;;;;16.30;8.70;;;;;;;;;;5043444;28;20033;-71
2021/03/22 10:30:28;;;;;;;11.15;6.20;;;;;;;;;;5033654;28;20029;-72
2021/03/22 10:33:02;;;;;;;16.50;7.22;;;;;;;;;;5050928;28;20488;-72
2021/03/22 10:35:49;;;;;;;11.88;6.65;;;;;;;;;;5049681;28;20044;-72
2021/03/22 10:38:30;;;;;;;9.60;4.47;;;;;;;;;;5048655;28;20022;-72
2021/03/22 10:40:57;;;;;;;12.38;6.25;;;;;;;;;;5045667;28;20021;-71
2021/03/22 10:43:29;;;;;;;13.43;7.22;;;;;;;;;;5049087;28;20094;-71
2021/03/22 10:45:55;;;;;;;9.10;4.90;;;;;;;;;;5049314;28;20032;-71
2021/03/22 10:48:26;;;;;;;16.38;10.43;;;;;;;;;;5046417;28;20033;-71
2021/03/22 10:50:59;;;;;;;15.82;8.57;;;;;;;;;;5046988;28;20033;-73
2021/03/22 10:53:26;;;;;;;;;;;;;;;;;;5035952;28;20478;-72
2021/03/22 10:55:52;;;;;;;14.63;7.63;;;;;;;;;;5048887;28;19912;-72
2021/03/22 10:58:36;;;;;;;16.17;8.77;;;;;;;;;;5035292;28;20029;-72
2021/03/22 11:01:04;;;;;;;32.17;15.38;;;;;;;;;;5047202;28;20114;-72
2021/03/22 11:03:31;;;;;;;45.05;23.42;;;;;;;;;;5039685;28;20171;-72
2021/03/22 11:05:57;;;;;;;13.98;7.05;;;;;;;;;;5042747;28;20021;-73
2021/03/22 11:08:34;;;;;;;13.75;7.90;;;;;;;;;;5048391;28;20029;-72
2021/03/22 11:11:05;;;;;;;13.00;8.50;;;;;;;;;;5034734;28;20087;-74
2021/03/22 11:13:33;;;;;;;12.07;6.75;;;;;;;;;;5038541;28;20025;-79
2021/03/22 11:15:59;;;;;;;9.43;5.47;;;;;;;;;;5041780;28;20085;-77
2021/03/22 11:18:26;;;;;;;12.70;6.80;;;;;;;;;;5053295;28;20022;-75
2021/03/22 11:20:53;;;;;;;9.63;4.10;;;;;;;;;;5053076;28;20021;-79
2021/03/22 11:23:26;;;;;;;10.40;6.22;;;;;;;;;;5039001;28;20029;-75
2021/03/22 11:25:54;;;;;;;18.90;9.07;;;;;;;;;;5057851;28;20509;-78
2021/03/22 11:28:20;;;;;;;14.85;8.70;;;;;;;;;;5040719;28;20030;-74
2021/03/22 11:30:49;;;;;;;11.70;6.82;;;;;;;;;;5039653;28;20079;-76
2021/03/22 11:33:17;;;;;;;15.55;8.63;;;;;;;;;;5035833;28;20158;-73
2021/03/22 11:35:47;;;;;;;13.07;8.18;;;;;;;;;;5040915;28;20400;-73
2021/03/22 11:38:24;;;;;;;8.38;5.25;;;;;;;;;;5048228;28;20444;-77
2021/03/22 11:40:51;;;;;;;16.45;7.78;;;;;;;;;;5044159;28;20034;-75
2021/03/22 11:43:20;;;;;;;13.00;8.68;;;;;;;;;;5051056;28;20017;-76
2021/03/22 11:45:46;;;;;;;15.27;8.82;;;;;;;;;;5034771;28;20079;-74
2021/03/22 11:48:39;;;;;;;12.80;9.02;;;;;;;;;;5042976;28;20114;-76
2021/03/22 11:51:08;;;;;;;12.02;5.85;;;;;;;;;;5030361;28;20490;-75
2021/03/22 11:53:54;;;;;;;10.93;6.30;;;;;;;;;;5042601;28;20024;-73
2021/03/22 11:56:24;;;;;;;14.77;8.25;;;;;;;;;;5043866;28;20486;-74
2021/03/22 11:58:51;;;;;;;15.65;7.93;;;;;;;;;;5037258;28;20052;-72
2021/03/22 12:01:17;;;;;;;12.38;7.30;;;;;;;;;;5034895;28;20112;-72
2021/03/22 12:03:43;;;;;;;9.20;4.85;;;;;;;;;;5041633;28;20025;-72
2021/03/22 12:06:13;;;;;;;11.65;6.35;;;;;;;;;;5038795;28;20030;-73
2021/03/22 12:08:47;;;;;;;12.82;7.13;;;;;;;;;;5043988;28;20104;-72
2021/03/22 12:11:18;;;;;;;17.67;9.90;;;;;;;;;;5045508;28;20408;-72
2021/03/22 12:13:47;;;;;;;19.38;8.40;;;;;;;;;;5051494;28;20033;-71
2021/03/22 12:16:18;;;;;;;14.52;7.45;;;;;;;;;;5050453;28;20108;-70
2021/03/22 12:18:44;;;;;;;14.27;7.90;;;;;;;;;;5042562;28;20074;-70
2021/03/22 12:21:12;;;;;;;18.70;9.05;;;;;;;;;;5051711;28;20060;-71
2021/03/22 12:23:39;;;;;;;16.20;10.10;;;;;;;;;;5042219;28;20386;-73
2021/03/22 12:26:06;;;;;;;11.70;6.63;;;;;;;;;;5030739;28;20466;-74
2021/03/22 12:28:32;;;;;;;10.32;6.07;;;;;;;;;;5037626;28;20029;-76
2021/03/22 12:30:59;;;;;;;9.77;5.57;;;;;;;;;;5044094;28;20029;-76
2021/03/22 12:33:28;;;;;;;9.65;6.05;;;;;;;;;;5048427;28;20025;-78
2021/03/22 12:35:55;;;;;;;11.30;7.15;;;;;;;;;;5050874;28;20025;-77
2021/03/22 12:38:21;;;;;;;14.70;7.82;;;;;;;;;;5048712;28;20021;-77
2021/03/22 12:40:47;;;;;;;11.98;6.25;;;;;;;;;;5045280;28;20048;-76
2021/03/22 12:43:25;;;;;;;14.43;7.68;;;;;;;;;;5042849;28;20083;-76
2021/03/22 12:45:51;;;;;;;13.07;7.50;;;;;;;;;;5036668;28;20033;-76
2021/03/22 12:48:17;;;;;;;12.30;6.82;;;;;;;;;;5039075;28;20071;-76
2021/03/22 12:50:44;;;;;;;13.20;8.05;;;;;;;;;;5048140;28;20025;-77
2021/03/22 12:53:13;;;;;;;11.30;6.95;;;;;;;;;;5049222;28;20029;-77
2021/03/22 12:55:39;;;;;;;14.68;9.32;;;;;;;;;;5047849;28;20025;-76
2021/03/22 12:58:11;;;;;;;12.00;6.80;;;;;;;;;;5049220;28;20022;-76
2021/03/22 13:00:38;;;;;;;15.77;8.85;;;;;;;;;;5048536;28;20096;-76
2021/03/22 13:03:04;;;;;;;10.90;6.65;;;;;;;;;;5045023;28;20024;-77
2021/03/22 13:05:31;;;;;;;10.77;6.05;;;;;;;;;;5054701;28;20087;-76
2021/03/22 13:07:58;;;;;;;11.93;7.80;;;;;;;;;;5054734;28;20029;-75
2021/03/22 13:10:29;;;;;;;14.77;8.90;;;;;;;;;;5054219;28;20021;-76
2021/03/22 13:12:55;;;;;;;12.07;7.60;;;;;;;;;;5055425;28;20378;-75
2021/03/22 13:15:31;;;;;;;10.63;6.07;;;;;;;;;;5055181;28;20037;-76
2021/03/22 13:17:57;;;;;;;10.93;5.93;;;;;;;;;;5055714;28;20075;-76
2021/03/22 13:20:25;;;;;;;10.77;5.72;;;;;;;;;;5055422;28;20055;-77
2021/03/22 13:22:51;;;;;;;12.43;7.30;;;;;;;;;;5054967;28;20067;-76
2021/03/22 13:25:18;;;;;;;16.40;8.57;;;;;;;;;;5053995;28;20025;-77
2021/03/22 13:27:44;;;;;;;16.00;9.05;;;;;;;;;;5055096;28;20529;-76
2021/03/22 13:30:13;;;;;;;14.80;8.90;;;;;;;;;;5054781;28;20033;-76
2021/03/22 13:32:39;;;;;;;11.20;6.10;;;;;;;;;;5055057;28;20025;-77
2021/03/22 13:35:06;;;;;;;13.95;7.65;;;;;;;;;;5055154;28;20117;-77
2021/03/22 13:37:32;;;;;;;15.48;7.82;;;;;;;;;;5053527;28;20540;-76
2021/03/22 13:39:59;;;;;;;29.35;13.43;;;;;;;;;;5054856;28;20025;-76
2021/03/22 13:42:25;;;;;;;10.85;5.80;;;;;;;;;;5053081;28;20025;-76
2021/03/22 13:44:51;;;;;;;12.48;7.40;;;;;;;;;;5054847;28;20036;-75
2021/03/22 13:47:18;;;;;;;11.05;6.38;;;;;;;;;;5054807;28;20485;-76
2021/03/22 13:49:44;;;;;;;11.40;6.72;;;;;;;;;;5054405;28;20033;-76
2021/03/22 13:52:20;;;;;;;13.10;7.28;;;;;;;;;;5054563;28;20041;-76
2021/03/22 13:54:47;;;;;;;9.30;5.78;;;;;;;;;;5054626;28;20041;-76
2021/03/22 13:57:13;;;;;;;9.63;4.50;;;;;;;;;;5054445;28;20021;-77
2021/03/22 13:59:39;;;;;;;7.80;4.93;;;;;;;;;;5053650;28;20029;-77
2021/03/22 14:02:07;;;;;;;11.57;6.35;;;;;;;;;;5053481;28;20075;-79
2021/03/22 14:04:33;;;;;;;13.23;7.38;;;;;;;;;;5052797;28;20025;-76
2021/03/22 14:06:59;;;;;;;17.73;9.65;;;;;;;;;;5054424;28;20021;-75
2021/03/22 14:09:25;;;;;;;10.75;6.38;;;;;;;;;;5054406;28;20389;-76
2021/03/22 14:11:53;;;;;;;15.65;10.13;;;;;;;;;;5053943;28;20044;-75
2021/03/22 14:14:20;;;;;;;14.45;8.93;;;;;;;;;;5053545;28;20112;-75
2021/03/22 14:16:46;;;;;;;14.88;8.70;;;;;;;;;;5054276;28;20027;-75
2021/03/22 14:19:12;;;;;;;16.45;7.22;;;;;;;;;;5053878;28;20503;-75
2021/03/22 14:21:38;;;;;;;16.58;9.02;;;;;;;;;;5054430;28;20067;-75
2021/03/22 14:24:05;;;;;;;18.13;10.15;;;;;;;;;;5053682;28;20025;-74
2021/03/22 14:26:31;;;;;;;38.75;19.65;;;;;;;;;;5053702;28;20025;-75
2021/03/22 14:28:58;;;;;;;11.82;7.82;;;;;;;;;;5054103;28;20052;-75
2021/03/22 14:31:26;;;;;;;15.88;7.93;;;;;;;;;;5054138;28;20021;-75
2021/03/22 14:33:54;;;;;;;19.52;8.52;;;;;;;;;;5052593;28;20029;-75
2021/03/22 14:36:22;;;;;;;18.40;10.38;;;;;;;;;;5052898;28;20405;-76
2021/03/22 14:38:48;;;;;;;20.42;11.02;;;;;;;;;;5053735;28;20025;-75
2021/03/22 14:41:14;;;;;;;13.85;8.23;;;;;;;;;;5053753;28;20037;-74
2021/03/22 14:43:41;;;;;;;12.43;7.75;;;;;;;;;;5053802;28;20493;-75
2021/03/22 14:46:07;;;;;;;20.98;12.98;;;;;;;;;;5053414;28;20096;-74
2021/03/22 14:48:34;;;;;;;17.83;10.75;;;;;;;;;;5053746;28;20227;-75
2021/03/22 14:51:01;;;;;;;18.00;10.15;;;;;;;;;;5053524;28;20055;-75
2021/03/22 14:53:27;;;;;;;14.75;8.93;;;;;;;;;;5053178;28;20013;-75